createdAt,value
2018-04-08T00:01:35.045Z,14.47
2018-04-08T00:04:02.648Z,13.77
2018-04-08T00:06:30.056Z,9.90
2018-04-08T00:08:57.468Z,11.33
2018-04-08T00:11:24.996Z,11.00
2018-04-08T00:13:52.417Z,14.17
2018-04-08T00:16:19.826Z,19.43
2018-04-08T00:18:47.322Z,18.10
2018-04-08T00:21:14.726Z,27.67
2018-04-08T00:23:42.151Z,18.63
2018-04-08T00:26:09.553Z,13.80
2018-04-08T00:28:36.929Z,10.80
2018-04-08T00:31:04.617Z,11.30
2018-04-08T00:33:32.007Z,11.57
2018-04-08T00:35:59.508Z,10.13
2018-04-08T00:38:26.876Z,9.70
2018-04-08T00:40:54.258Z,9.00
2018-04-08T00:43:21.657Z,10.97
2018-04-08T00:45:49.067Z,11.40
2018-04-08T00:48:16.461Z,13.23
2018-04-08T00:50:43.974Z,13.90
2018-04-08T00:53:11.431Z,11.97
2018-04-08T00:55:38.883Z,9.80
2018-04-08T00:58:06.831Z,13.20
2018-04-08T01:00:34.227Z,10.97
2018-04-08T01:03:01.731Z,11.00
2018-04-08T01:05:30.185Z,12.17
2018-04-08T01:07:57.583Z,9.97
2018-04-08T01:10:24.983Z,11.20
2018-04-08T01:12:52.394Z,10.50
2018-04-08T01:15:19.786Z,10.90
2018-04-08T01:17:47.184Z,10.97
2018-04-08T01:20:14.586Z,10.37
2018-04-08T01:22:42.097Z,10.30
2018-04-08T01:25:11.241Z,10.30
2018-04-08T01:27:38.639Z,10.37
2018-04-08T01:30:06.052Z,9.43
2018-04-08T01:32:33.496Z,11.60
2018-04-08T01:35:00.883Z,10.80
2018-04-08T01:37:28.308Z,10.63
2018-04-08T01:39:55.693Z,12.20
2018-04-08T01:42:23.097Z,13.40
2018-04-08T01:44:50.489Z,11.37
2018-04-08T01:47:17.872Z,10.23
2018-04-08T01:49:45.277Z,10.67
2018-04-08T01:52:12.653Z,10.13
2018-04-08T01:54:40.073Z,10.83
2018-04-08T01:57:07.461Z,12.33
2018-04-08T01:59:34.852Z,11.27
2018-04-08T02:02:02.248Z,10.37
2018-04-08T02:04:29.637Z,9.83
2018-04-08T02:06:57.004Z,10.63
2018-04-08T02:09:24.410Z,11.03
2018-04-08T02:11:51.824Z,12.50
2018-04-08T02:14:19.305Z,10.10
2018-04-08T02:16:46.680Z,10.40
2018-04-08T02:19:14.074Z,10.90
2018-04-08T02:21:41.570Z,11.23
2018-04-08T02:24:08.960Z,14.27
2018-04-08T02:26:36.402Z,11.23
2018-04-08T02:29:03.976Z,10.40
2018-04-08T02:31:31.382Z,11.20
2018-04-08T02:33:58.787Z,10.40
2018-04-08T02:36:26.186Z,10.10
2018-04-08T02:38:53.554Z,10.53
2018-04-08T02:41:20.966Z,10.83
2018-04-08T02:43:48.344Z,10.80
2018-04-08T02:46:15.776Z,11.33
2018-04-08T02:48:43.197Z,10.13
2018-04-08T02:51:10.604Z,10.90
2018-04-08T02:53:40.593Z,10.20
2018-04-08T02:56:09.306Z,13.90
2018-04-08T02:58:44.112Z,11.70
2018-04-08T03:01:24.528Z,10.10
2018-04-08T03:03:51.909Z,9.23
2018-04-08T03:06:19.406Z,10.23
2018-04-08T03:08:46.880Z,9.33
2018-04-08T03:11:14.420Z,10.83
2018-04-08T03:13:41.909Z,9.20
2018-04-08T03:16:09.277Z,10.53
2018-04-08T03:18:36.666Z,10.23
2018-04-08T03:21:04.037Z,9.70
2018-04-08T03:23:31.455Z,11.87
2018-04-08T03:25:58.882Z,10.07
2018-04-08T03:28:26.320Z,9.70
2018-04-08T03:30:53.729Z,10.60
2018-04-08T03:33:21.209Z,9.53
2018-04-08T03:35:48.660Z,9.93
2018-04-08T03:38:16.036Z,9.60
2018-04-08T03:40:43.429Z,9.83
2018-04-08T03:43:10.901Z,9.70
2018-04-08T03:45:38.286Z,10.07
2018-04-08T03:48:05.673Z,10.83
2018-04-08T03:50:33.138Z,9.50
2018-04-08T03:53:00.549Z,10.33
2018-04-08T03:55:27.952Z,10.13
2018-04-08T03:57:55.417Z,10.27
2018-04-08T04:00:22.772Z,10.20
2018-04-08T04:02:50.165Z,8.50
2018-04-08T04:05:17.549Z,9.37
2018-04-08T04:07:45.841Z,9.80
2018-04-08T04:10:13.256Z,10.03
2018-04-08T04:12:40.736Z,10.80
2018-04-08T04:15:08.159Z,9.23
2018-04-08T04:17:35.545Z,9.37
2018-04-08T04:20:14.813Z,10.10
2018-04-08T04:22:53.864Z,10.40
2018-04-08T04:25:33.049Z,9.40
2018-04-08T04:28:00.443Z,10.00
2018-04-08T04:30:27.821Z,10.07
2018-04-08T04:32:55.236Z,9.63
2018-04-08T04:35:22.577Z,10.47
2018-04-08T04:37:50.102Z,10.43
2018-04-08T04:40:17.480Z,9.17
2018-04-08T04:42:44.893Z,9.80
2018-04-08T04:45:12.336Z,10.20
2018-04-08T04:47:39.673Z,9.07
2018-04-08T04:50:07.403Z,9.47
2018-04-08T04:52:34.802Z,10.20
2018-04-08T04:55:02.189Z,10.10
2018-04-08T04:57:29.582Z,9.77
2018-04-08T04:59:56.972Z,9.50
2018-04-08T05:02:24.366Z,9.80
2018-04-08T05:04:51.854Z,8.67
2018-04-08T05:07:20.095Z,9.43
2018-04-08T05:09:47.478Z,10.10
2018-04-08T05:12:14.882Z,9.47
2018-04-08T05:14:42.277Z,10.60
2018-04-08T05:17:09.843Z,10.63
2018-04-08T05:19:37.233Z,10.03
2018-04-08T05:22:04.639Z,10.57
2018-04-08T05:24:32.026Z,10.13
2018-04-08T05:26:59.413Z,9.50
2018-04-08T05:29:26.876Z,10.90
2018-04-08T05:31:54.275Z,11.80
2018-04-08T05:34:21.705Z,13.10
2018-04-08T05:36:49.090Z,8.30
2018-04-08T05:39:16.484Z,8.93
2018-04-08T05:41:43.941Z,8.70
2018-04-08T05:44:11.325Z,8.53
2018-04-08T05:46:38.726Z,9.10
2018-04-08T05:49:06.118Z,8.97
2018-04-08T05:51:33.509Z,9.10
2018-04-08T05:54:00.896Z,8.83
2018-04-08T05:56:28.285Z,8.40
2018-04-08T05:58:55.718Z,10.00
2018-04-08T06:01:23.113Z,9.50
2018-04-08T06:03:50.632Z,9.10
2018-04-08T06:06:17.990Z,8.87
2018-04-08T06:08:45.521Z,8.73
2018-04-08T06:11:12.962Z,9.30
2018-04-08T06:13:40.344Z,9.10
2018-04-08T06:16:08.079Z,9.23
2018-04-08T06:18:35.540Z,9.30
2018-04-08T06:21:02.939Z,9.50
2018-04-08T06:23:30.340Z,8.30
2018-04-08T06:25:58.370Z,8.87
2018-04-08T06:28:25.884Z,9.33
2018-04-08T06:30:53.284Z,8.60
2018-04-08T06:33:20.910Z,9.30
2018-04-08T06:35:48.292Z,8.93
2018-04-08T06:38:15.689Z,10.60
2018-04-08T06:40:43.056Z,8.73
2018-04-08T06:43:10.457Z,9.47
2018-04-08T06:45:37.924Z,8.77
2018-04-08T06:48:05.361Z,8.57
2018-04-08T06:50:32.742Z,8.90
2018-04-08T06:53:00.145Z,9.37
2018-04-08T06:55:27.541Z,8.60
2018-04-08T06:57:54.918Z,9.20
2018-04-08T07:00:22.314Z,8.20
2018-04-08T07:02:49.700Z,8.50
2018-04-08T07:05:17.139Z,9.23
2018-04-08T07:07:44.468Z,9.37
2018-04-08T07:10:11.894Z,8.80
2018-04-08T07:12:39.303Z,9.20
2018-04-08T07:15:06.698Z,11.47
2018-04-08T07:17:34.115Z,9.67
2018-04-08T07:20:02.162Z,8.93
2018-04-08T07:22:29.957Z,9.70
2018-04-08T07:24:57.413Z,9.70
2018-04-08T07:27:24.822Z,10.77
2018-04-08T07:29:52.210Z,9.83
2018-04-08T07:32:19.620Z,9.80
2018-04-08T07:34:47.042Z,9.13
2018-04-08T07:37:14.637Z,10.60
2018-04-08T07:39:42.045Z,9.77
2018-04-08T07:42:10.530Z,9.17
2018-04-08T07:44:37.925Z,9.70
2018-04-08T07:47:05.308Z,9.70
2018-04-08T07:49:32.687Z,9.17
2018-04-08T07:52:00.073Z,10.43
2018-04-08T07:54:27.578Z,10.17
2018-04-08T07:56:54.988Z,8.13
2018-04-08T07:59:22.386Z,9.30
2018-04-08T08:01:49.777Z,9.93
2018-04-08T08:04:17.164Z,8.90
2018-04-08T08:06:44.644Z,10.00
2018-04-08T08:09:12.045Z,9.97
2018-04-08T08:11:39.441Z,9.53
2018-04-08T08:14:07.622Z,9.80
2018-04-08T08:16:35.013Z,9.80
2018-04-08T08:19:02.393Z,10.17
2018-04-08T08:21:29.793Z,10.27
2018-04-08T08:23:57.402Z,9.50
2018-04-08T08:26:24.802Z,9.23
2018-04-08T08:28:52.190Z,9.50
2018-04-08T08:31:19.597Z,10.00
2018-04-08T08:33:46.993Z,9.40
2018-04-08T08:36:14.915Z,9.63
2018-04-08T08:38:42.328Z,9.70
2018-04-08T08:41:09.775Z,10.80
2018-04-08T08:43:37.147Z,9.30
2018-04-08T08:46:04.530Z,10.70
2018-04-08T08:48:31.965Z,9.73
2018-04-08T08:50:59.564Z,11.60
2018-04-08T08:53:27.077Z,10.50
2018-04-08T08:55:54.489Z,9.90
2018-04-08T08:58:21.878Z,9.33
2018-04-08T09:00:49.253Z,9.90
2018-04-08T09:03:16.672Z,9.80
2018-04-08T09:05:44.242Z,9.20
2018-04-08T09:08:11.722Z,11.17
2018-04-08T09:10:39.124Z,10.67
2018-04-08T09:13:06.530Z,9.50
2018-04-08T09:15:33.960Z,10.17
2018-04-08T09:18:02.774Z,9.90
2018-04-08T09:20:33.068Z,10.50
2018-04-08T09:23:05.937Z,10.43
2018-04-08T09:38:55.925Z,10.30
2018-04-08T09:41:23.313Z,10.70
2018-04-08T09:43:50.785Z,10.00
2018-04-08T09:46:18.225Z,9.60
2018-04-08T09:48:45.652Z,10.43
2018-04-08T09:51:13.027Z,10.67
2018-04-08T09:53:40.469Z,9.80
2018-04-08T09:56:07.869Z,10.33
2018-04-08T09:58:35.276Z,10.67
2018-04-08T10:01:09.161Z,10.60
2018-04-08T10:03:53.286Z,11.50
2018-04-08T10:06:20.911Z,11.47
2018-04-08T10:08:48.294Z,10.10
2018-04-08T10:11:15.712Z,12.47
2018-04-08T10:13:43.106Z,10.30
2018-04-08T10:16:10.553Z,10.80
2018-04-08T10:18:38.002Z,10.87
2018-04-08T10:21:05.454Z,9.90
2018-04-08T10:23:32.843Z,10.87
2018-04-08T10:26:00.269Z,11.40
2018-04-08T10:28:27.666Z,11.73
2018-04-08T10:30:55.079Z,10.37
2018-04-08T10:33:23.386Z,10.77
2018-04-08T10:35:50.914Z,13.10
2018-04-08T10:38:18.812Z,14.13
2018-04-08T10:40:46.246Z,11.20
2018-04-08T10:43:13.657Z,10.73
2018-04-08T10:45:41.299Z,10.43
2018-04-08T10:48:08.709Z,10.33
2018-04-08T10:50:36.126Z,11.47
2018-04-08T10:53:03.529Z,10.90
2018-04-08T10:55:30.982Z,11.67
2018-04-08T10:57:58.377Z,10.77
2018-04-08T11:00:25.793Z,9.70
2018-04-08T11:02:53.210Z,9.60
2018-04-08T11:05:20.662Z,8.63
2018-04-08T11:07:48.081Z,10.20
2018-04-08T11:10:15.497Z,8.10
2018-04-08T11:12:42.896Z,10.40
2018-04-08T11:15:10.277Z,9.53
2018-04-08T11:17:37.683Z,8.20
2018-04-08T11:20:05.078Z,9.03
2018-04-08T11:22:33.704Z,11.03
2018-04-08T11:25:01.095Z,8.73
2018-04-08T11:27:28.545Z,8.20
2018-04-08T11:29:55.942Z,8.57
2018-04-08T11:32:23.455Z,8.27
2018-04-08T11:34:50.840Z,9.40
2018-04-08T11:37:18.298Z,8.67
2018-04-08T11:39:45.930Z,8.23
2018-04-08T11:42:13.310Z,7.40
2018-04-08T11:44:40.754Z,7.47
2018-04-08T11:47:09.240Z,8.10
2018-04-08T11:49:36.920Z,7.83
2018-04-08T11:52:04.417Z,6.90
2018-04-08T11:54:31.834Z,6.70
2018-04-08T11:56:59.270Z,6.10
2018-04-08T11:59:26.689Z,5.87
2018-04-08T12:01:54.096Z,7.27
2018-04-08T12:04:21.749Z,7.07
2018-04-08T12:06:49.145Z,8.80
2018-04-08T12:09:16.537Z,6.80
2018-04-08T12:11:43.921Z,6.37
2018-04-08T12:14:11.307Z,6.10
2018-04-08T12:16:38.830Z,6.47
2018-04-08T12:19:06.671Z,6.80
2018-04-08T12:21:34.527Z,4.87
2018-04-08T12:24:01.936Z,5.60
2018-04-08T12:26:29.446Z,4.47
2018-04-08T12:28:56.879Z,7.03
2018-04-08T12:31:25.219Z,5.13
2018-04-08T12:33:52.754Z,5.40
2018-04-08T12:36:20.221Z,5.00
2018-04-08T12:38:47.867Z,4.50
2018-04-08T12:41:18.465Z,4.13
2018-04-08T12:43:45.875Z,4.70
2018-04-08T12:46:13.393Z,5.03
2018-04-08T12:48:40.814Z,4.57
2018-04-08T12:51:08.215Z,5.00
2018-04-08T12:53:35.603Z,4.43
2018-04-08T12:56:03.034Z,3.87
2018-04-08T12:58:30.454Z,3.33
2018-04-08T13:00:57.886Z,5.20
2018-04-08T13:03:25.320Z,4.00
2018-04-08T13:05:52.746Z,3.90
2018-04-08T13:08:20.140Z,5.03
2018-04-08T13:10:47.517Z,4.20
2018-04-08T13:13:15.001Z,5.90
2018-04-08T13:15:42.429Z,4.60
2018-04-08T13:18:09.863Z,4.60
2018-04-08T13:20:37.277Z,4.10
2018-04-08T13:23:06.363Z,4.80
2018-04-08T13:25:33.787Z,4.03
2018-04-08T13:28:01.290Z,3.72
2018-04-08T13:30:28.776Z,4.70
2018-04-08T13:32:56.241Z,10.90
2018-04-08T13:35:23.709Z,4.23
2018-04-08T13:37:51.103Z,5.10
2018-04-08T13:40:18.500Z,6.53
2018-04-08T13:42:45.892Z,4.32
2018-04-08T13:45:13.324Z,8.88
2018-04-08T13:47:40.737Z,8.95
2018-04-08T13:50:08.236Z,6.40
2018-04-08T13:52:35.650Z,4.28
2018-04-08T13:55:03.043Z,5.75
2018-04-08T13:57:30.446Z,5.82
2018-04-08T13:59:57.850Z,4.20
2018-04-08T14:02:25.266Z,6.90
2018-04-08T14:04:52.680Z,7.30
2018-04-08T14:07:20.077Z,6.07
2018-04-08T14:09:47.460Z,6.03
2018-04-08T14:12:14.837Z,4.12
2018-04-08T14:14:42.229Z,6.90
2018-04-08T14:17:09.663Z,7.32
2018-04-08T14:19:37.070Z,4.60
2018-04-08T14:22:04.462Z,3.45
2018-04-08T14:24:31.889Z,3.92
2018-04-08T14:26:59.229Z,11.70
2018-04-08T14:29:27.081Z,4.40
2018-04-08T14:31:54.451Z,4.62
2018-04-08T14:34:21.840Z,4.15
2018-04-08T14:36:49.233Z,7.18
2018-04-08T14:39:16.645Z,6.35
2018-04-08T14:41:44.085Z,6.10
2018-04-08T14:44:11.466Z,5.15
2018-04-08T14:46:38.886Z,9.68
2018-04-08T14:49:06.286Z,4.55
2018-04-08T14:51:33.986Z,5.78
2018-04-08T14:54:01.414Z,10.60
2018-04-08T14:56:28.827Z,8.07
2018-04-08T14:58:57.268Z,6.20
2018-04-08T15:01:24.701Z,5.45
2018-04-08T15:03:52.077Z,6.30
2018-04-08T15:06:19.478Z,4.75
2018-04-08T15:08:46.865Z,11.27
2018-04-08T15:11:14.269Z,10.23
2018-04-08T15:13:41.650Z,5.03
2018-04-08T15:16:09.037Z,4.80
2018-04-08T15:18:36.665Z,5.13
2018-04-08T15:21:04.053Z,5.50
2018-04-08T15:23:31.463Z,5.55
2018-04-08T15:25:58.848Z,4.50
2018-04-08T15:28:26.247Z,6.15
2018-04-08T15:30:53.645Z,7.28
2018-04-08T15:33:30.746Z,6.20
2018-04-08T15:36:10.329Z,4.30
2018-04-08T15:38:38.018Z,6.15
2018-04-08T15:41:05.425Z,6.60
2018-04-08T15:43:32.945Z,6.87
2018-04-08T15:46:00.351Z,10.30
2018-04-08T15:48:27.764Z,9.38
2018-04-08T15:50:55.177Z,7.30
2018-04-08T15:53:22.576Z,6.20
2018-04-08T15:55:49.961Z,7.82
2018-04-08T15:58:17.411Z,8.05
2018-04-08T16:00:44.787Z,6.93
2018-04-08T16:03:12.201Z,6.10
2018-04-08T16:05:39.578Z,6.33
2018-04-08T16:08:06.996Z,8.77
2018-04-08T16:10:34.577Z,5.27
2018-04-08T16:13:02.706Z,8.57
2018-04-08T16:15:30.101Z,6.10
2018-04-08T16:17:57.505Z,4.70
2018-04-08T16:20:24.937Z,5.70
2018-04-08T16:22:52.325Z,4.40
2018-04-08T16:25:19.733Z,9.20
2018-04-08T16:27:47.144Z,10.23
2018-04-08T16:30:14.542Z,7.13
2018-04-08T16:32:41.974Z,5.43
2018-04-08T16:35:09.369Z,7.27
2018-04-08T16:37:37.085Z,5.70
2018-04-08T16:40:04.459Z,4.80
2018-04-08T16:42:31.866Z,5.63
2018-04-08T16:44:59.452Z,4.57
2018-04-08T16:47:26.854Z,6.30
2018-04-08T16:49:54.224Z,6.90
2018-04-08T16:52:21.593Z,7.00
2018-04-08T16:54:48.996Z,8.90
2018-04-08T16:57:16.365Z,6.60
2018-04-08T16:59:43.751Z,6.67
2018-04-08T17:02:11.125Z,5.17
2018-04-08T17:04:38.526Z,4.83
2018-04-08T17:07:05.907Z,5.57
2018-04-08T17:09:33.295Z,5.03
2018-04-08T17:12:00.673Z,5.23
2018-04-08T17:14:28.083Z,4.77
2018-04-08T17:16:55.476Z,7.37
2018-04-08T17:19:22.877Z,8.03
2018-04-08T17:21:50.237Z,7.90
2018-04-08T17:24:17.637Z,8.90
2018-04-08T17:26:45.016Z,5.77
2018-04-08T17:29:12.408Z,5.83
2018-04-08T17:31:39.795Z,5.87
2018-04-08T17:34:07.185Z,5.83
2018-04-08T17:36:34.606Z,6.33
2018-04-08T17:39:02.010Z,11.63
2018-04-08T17:41:29.418Z,6.07
2018-04-08T17:43:56.804Z,7.73
2018-04-08T17:46:24.246Z,6.00
2018-04-08T17:48:51.620Z,5.40
2018-04-08T17:51:19.008Z,5.27
2018-04-08T17:53:46.389Z,5.57
2018-04-08T17:56:13.788Z,8.13
2018-04-08T17:58:41.162Z,5.43
2018-04-08T18:01:08.563Z,5.87
2018-04-08T18:03:35.949Z,4.87
2018-04-08T18:06:03.381Z,5.67
2018-04-08T18:08:30.748Z,7.53
2018-04-08T18:10:58.137Z,5.63
2018-04-08T18:13:25.541Z,8.97
2018-04-08T18:15:52.935Z,6.27
2018-04-08T18:18:20.371Z,5.93
2018-04-08T18:20:47.744Z,6.70
2018-04-08T18:23:15.156Z,6.30
2018-04-08T18:25:42.552Z,6.40
2018-04-08T18:28:09.945Z,9.03
2018-04-08T18:30:37.330Z,6.00
2018-04-08T18:33:04.726Z,7.10
2018-04-08T18:35:32.138Z,6.50
2018-04-08T18:37:59.540Z,8.33
2018-04-08T18:40:26.959Z,10.07
2018-04-08T18:42:54.349Z,6.13
2018-04-08T18:45:21.748Z,6.90
2018-04-08T18:47:49.681Z,7.13
2018-04-08T18:50:17.108Z,8.20
2018-04-08T18:52:44.489Z,7.00
2018-04-08T18:55:11.884Z,6.53
2018-04-08T18:57:39.473Z,7.90
2018-04-08T19:00:06.852Z,9.33
2018-04-08T19:02:39.901Z,7.80
2018-04-08T19:05:17.178Z,7.10
2018-04-08T19:07:45.111Z,10.00
2018-04-08T19:10:12.518Z,12.00
2018-04-08T19:12:39.897Z,7.40
2018-04-08T19:15:12.733Z,7.63
2018-04-08T19:17:46.842Z,7.97
2018-04-08T19:20:14.232Z,8.30
2018-04-08T19:22:41.632Z,9.57
2018-04-08T19:25:09.047Z,10.60
2018-04-08T19:27:36.430Z,9.23
2018-04-08T19:32:53.780Z,8.53
2018-04-08T19:35:21.173Z,8.40
2018-04-08T19:37:48.597Z,9.10
2018-04-08T19:40:15.987Z,9.37
2018-04-08T19:42:43.373Z,8.50
2018-04-08T19:45:10.886Z,7.93
2018-04-08T19:47:38.371Z,8.23
2018-04-08T19:50:05.772Z,8.50
2018-04-08T19:52:33.153Z,8.63
2018-04-08T19:55:00.534Z,8.73
2018-04-08T19:57:27.929Z,8.03
2018-04-08T19:59:55.301Z,8.90
2018-04-08T20:02:22.789Z,9.10
2018-04-08T20:04:50.174Z,8.20
2018-04-08T20:07:17.562Z,8.20
2018-04-08T20:09:44.965Z,8.20
2018-04-08T20:12:12.359Z,8.07
2018-04-08T20:14:39.730Z,8.73
2018-04-08T20:17:07.128Z,7.63
2018-04-08T20:19:34.532Z,8.10
2018-04-08T20:22:01.924Z,8.60
2018-04-08T20:24:29.321Z,8.90
2018-04-08T20:26:56.743Z,8.80
2018-04-08T20:29:24.111Z,7.67
2018-04-08T20:31:51.489Z,7.83
2018-04-08T20:34:18.871Z,8.07
2018-04-08T20:36:46.307Z,8.70
2018-04-08T20:39:13.709Z,8.80
2018-04-08T20:41:41.097Z,9.20
2018-04-08T20:44:08.523Z,7.57
2018-04-08T20:46:35.894Z,8.63
2018-04-08T20:49:03.297Z,7.50
2018-04-08T20:51:30.676Z,8.17
2018-04-08T20:53:58.089Z,9.00
2018-04-08T20:56:25.499Z,7.13
2018-04-08T20:58:52.883Z,7.43
2018-04-08T21:01:20.283Z,7.97
2018-04-08T21:03:47.965Z,6.77
2018-04-08T21:06:15.353Z,6.90
2018-04-08T21:08:42.771Z,7.47
2018-04-08T21:11:10.157Z,7.93
2018-04-08T21:13:37.571Z,8.33
2018-04-08T21:16:04.962Z,7.53
2018-04-08T21:18:32.342Z,8.20
2018-04-08T21:20:59.732Z,7.90
2018-04-08T21:23:27.105Z,7.90
2018-04-08T21:25:54.541Z,8.70
2018-04-08T21:28:21.925Z,7.57
2018-04-08T21:30:49.315Z,7.33
2018-04-08T21:33:16.726Z,7.43
2018-04-08T21:35:44.137Z,8.17
2018-04-08T21:38:11.559Z,7.57
2018-04-08T21:40:38.974Z,8.40
2018-04-08T21:43:06.367Z,7.70
2018-04-08T21:45:33.805Z,7.50
2018-04-08T21:48:01.242Z,7.40
2018-04-08T21:50:28.624Z,8.30
2018-04-08T21:52:56.016Z,7.47
2018-04-08T21:55:23.406Z,7.93
2018-04-08T21:57:50.787Z,8.37
2018-04-08T22:00:18.238Z,7.80
2018-04-08T22:02:45.613Z,8.33
2018-04-08T22:05:12.988Z,8.00
2018-04-08T22:07:40.400Z,7.67
2018-04-08T22:10:07.774Z,7.73
2018-04-08T22:12:35.186Z,7.67
2018-04-08T22:15:02.866Z,8.43
2018-04-08T22:17:30.685Z,9.20
2018-04-08T22:19:59.076Z,9.43
2018-04-08T22:22:26.683Z,10.33
2018-04-08T22:24:55.257Z,12.90
2018-04-08T22:27:22.984Z,11.00
2018-04-08T22:29:50.629Z,9.70
2018-04-08T22:32:18.451Z,8.80
2018-04-08T22:34:46.122Z,11.53
2018-04-08T22:37:13.874Z,12.90
2018-04-08T22:39:42.726Z,10.87
2018-04-08T22:42:10.385Z,10.03
2018-04-08T22:44:38.149Z,9.67
2018-04-08T22:47:06.683Z,9.17
2018-04-08T22:49:34.363Z,8.83
2018-04-08T22:52:02.383Z,10.90
2018-04-08T22:54:31.098Z,9.73
2018-04-08T22:56:59.107Z,9.27
2018-04-08T22:59:26.992Z,9.07
2018-04-08T23:01:54.686Z,9.97
2018-04-08T23:04:22.531Z,9.37
2018-04-08T23:06:50.397Z,10.30
2018-04-08T23:09:18.219Z,9.40
2018-04-08T23:11:46.744Z,12.53
2018-04-08T23:14:14.608Z,8.70
2018-04-08T23:16:42.475Z,8.80
2018-04-08T23:19:10.185Z,9.47
2018-04-08T23:21:37.853Z,8.73
2018-04-08T23:24:05.469Z,10.13
2018-04-08T23:26:33.130Z,9.50
2018-04-08T23:29:00.608Z,9.20
2018-04-08T23:31:30.036Z,9.97
2018-04-08T23:33:57.679Z,10.70
2018-04-08T23:36:25.322Z,9.60
2018-04-08T23:38:52.941Z,7.90
2018-04-08T23:41:21.398Z,9.03
2018-04-08T23:43:49.096Z,8.67
2018-04-08T23:46:16.814Z,8.37
2018-04-08T23:48:44.516Z,8.57
2018-04-08T23:51:12.237Z,9.20
2018-04-08T23:53:39.948Z,8.20
2018-04-08T23:56:08.549Z,7.87
2018-04-08T23:58:37.170Z,9.50
